Time;durP1;ratioP1;P1;durP2;ratioP2;P2;SDS_P1;SDS_P2;PMS_P1;PMS_P2;Temp;Humidity;BMP_temperature;BMP_pressure;BME280_temperature;BME280_humidity;BME280_pressure;Samples;Min_cycle;Max_cycle;Signal;HPM_P1;HPM_P2
2022/11/01 00:00:36;;;;;;;15.55;8.43;;;10.40;99.90;;;;;;5195744;28;20033;-72
2022/11/01 00:03:07;;;;;;;19.55;9.07;;;10.40;99.90;;;;;;5213650;28;20037;-72
2022/11/01 00:05:41;;;;;;;15.20;8.73;;;10.40;99.90;;;;;;5191909;28;20114;-74
2022/11/01 00:08:12;;;;;;;19.95;9.52;;;10.40;99.90;;;;;;5190439;28;20046;-74
2022/11/01 00:10:46;;;;;;;21.92;9.23;;;10.40;99.90;;;;;;5211391;28;20052;-73
2022/11/01 00:13:17;;;;;;;21.55;10.02;;;10.30;99.90;;;;;;5213521;28;20041;-74
2022/11/01 00:15:50;;;;;;;18.88;10.10;;;10.30;99.90;;;;;;5210341;28;20044;-72
2022/11/01 00:18:22;;;;;;;15.82;8.88;;;10.40;99.90;;;;;;5213818;28;20033;-75
2022/11/01 00:20:53;;;;;;;20.70;10.13;;;10.30;99.90;;;;;;5215069;28;20041;-72
2022/11/01 00:23:24;;;;;;;17.63;9.85;;;10.40;99.90;;;;;;5216068;28;20036;-74
2022/11/01 00:26:02;;;;;;;15.65;8.48;;;10.40;99.90;;;;;;5198766;28;20310;-74
2022/11/01 00:28:36;;;;;;;18.70;9.43;;;10.30;99.90;;;;;;5191572;28;20060;-73
2022/11/01 00:31:08;;;;;;;17.08;9.52;;;10.30;99.90;;;;;;5191864;28;20030;-74
2022/11/01 00:33:39;;;;;;;18.48;10.00;;;10.40;99.90;;;;;;5210631;28;20258;-72
2022/11/01 00:36:11;;;;;;;17.08;8.82;;;10.40;99.90;;;;;;5209236;28;20024;-74
2022/11/01 00:38:42;;;;;;;18.02;9.40;;;10.40;99.90;;;;;;5212209;28;20188;-73
2022/11/01 00:41:14;;;;;;;20.60;10.05;;;10.40;99.90;;;;;;5212314;28;20052;-73
2022/11/01 00:43:45;;;;;;;15.98;8.80;;;10.30;99.90;;;;;;5193398;28;20076;-73
2022/11/01 00:46:17;;;;;;;17.80;9.70;;;10.30;99.90;;;;;;5212356;28;20056;-73
2022/11/01 00:48:48;;;;;;;18.35;9.32;;;10.30;99.90;;;;;;5193620;28;20029;-74
2022/11/01 00:51:20;;;;;;;22.90;10.50;;;10.40;99.90;;;;;;5198643;28;20529;-73
2022/11/01 00:53:53;;;;;;;19.58;9.32;;;10.40;99.90;;;;;;5213181;28;20038;-73
2022/11/01 00:56:27;;;;;;;16.73;9.50;;;10.40;99.90;;;;;;5212649;28;20047;-72
2022/11/01 00:58:58;;;;;;;18.37;9.30;;;10.40;99.90;;;;;;5213758;28;20040;-73
2022/11/01 01:01:32;;;;;;;17.63;9.38;;;10.40;99.90;;;;;;5195308;28;20025;-73
2022/11/01 01:04:06;;;;;;;15.87;8.70;;;10.40;99.90;;;;;;5178491;28;20045;-73
2022/11/01 01:06:44;;;;;;;14.38;8.85;;;10.30;99.90;;;;;;5201989;28;20418;-74
2022/11/01 01:09:16;;;;;;;23.27;9.43;;;10.30;99.90;;;;;;5212614;28;20174;-73
2022/11/01 01:11:54;;;;;;;17.15;8.73;;;10.30;99.90;;;;;;5212722;28;20032;-73
2022/11/01 01:14:25;;;;;;;14.50;8.65;;;10.30;99.90;;;;;;5187564;28;20040;-72
2022/11/01 01:16:57;;;;;;;17.10;8.82;;;10.30;99.90;;;;;;5212482;28;20342;-74
2022/11/01 01:19:29;;;;;;;35.97;8.57;;;10.30;99.90;;;;;;5212175;28;20082;-74
2022/11/01 01:22:00;;;;;;;18.88;9.27;;;10.30;99.90;;;;;;5216220;28;20028;-73
2022/11/01 01:24:32;;;;;;;18.90;8.40;;;10.40;99.90;;;;;;5224279;28;20480;-75
2022/11/01 01:27:05;;;;;;;15.07;8.27;;;10.40;99.90;;;;;;5212143;28;20030;-75
2022/11/01 01:29:40;;;;;;;15.63;8.32;;;10.40;99.90;;;;;;5191106;28;20065;-74
2022/11/01 01:32:13;;;;;;;15.98;9.00;;;10.40;99.90;;;;;;5204638;28;20040;-74
2022/11/01 01:34:45;;;;;;;16.10;8.27;;;10.30;99.90;;;;;;5200945;28;20039;-75
2022/11/01 01:37:19;;;;;;;19.30;8.82;;;10.30;99.90;;;;;;5174302;28;20022;-75
2022/11/01 01:39:50;;;;;;;17.20;8.77;;;10.40;99.90;;;;;;5210534;28;20038;-75
2022/11/01 01:42:32;;;;;;;16.85;8.93;;;10.30;99.90;;;;;;5190014;28;20037;-75
2022/11/01 01:45:07;;;;;;;15.45;8.07;;;10.40;99.90;;;;;;5201078;28;20047;-75
2022/11/01 01:47:42;;;;;;;;;;;10.40;99.90;;;;;;5212907;28;20041;-74
2022/11/01 01:50:34;;;;;;;27.38;7.55;;;10.30;99.90;;;;;;5212016;28;19909;-75
2022/11/01 01:53:42;;;;;;;20.52;8.18;;;10.30;99.90;;;;;;5182960;28;20369;-75
2022/11/01 01:56:20;;;;;;;26.75;8.75;;;10.30;99.90;;;;;;5191206;28;20029;-75
2022/11/01 01:58:58;;;;;;;15.45;9.20;;;10.30;99.90;;;;;;5191112;28;20044;-76
2022/11/01 02:01:34;;;;;;;18.30;9.35;;;10.30;99.90;;;;;;5195590;28;20035;-75
2022/11/01 02:04:26;;;;;;;20.80;9.45;;;10.30;99.90;;;;;;5210344;28;20037;-75
2022/11/01 02:06:59;;;;;;;15.00;8.68;;;10.30;99.90;;;;;;5183400;28;20053;-74
2022/11/01 02:09:34;;;;;;;16.48;8.73;;;10.30;99.90;;;;;;5210966;28;20021;-74
2022/11/01 02:12:12;;;;;;;16.58;8.35;;;10.30;99.90;;;;;;5196149;28;20311;-75
2022/11/01 02:14:47;;;;;;;17.00;8.75;;;10.30;99.90;;;;;;5204435;28;20404;-74
2022/11/01 02:17:26;;;;;;;16.67;8.80;;;10.30;99.90;;;;;;5201818;28;20036;-75
2022/11/01 02:20:25;;;;;;;20.15;8.50;;;10.30;99.90;;;;;;5214670;28;20021;-74
2022/11/01 02:23:02;;;;;;;16.95;9.02;;;10.30;99.90;;;;;;5209606;28;20044;-74
2022/11/01 02:25:36;;;;;;;15.07;8.65;;;10.30;99.90;;;;;;5213351;28;20212;-75
2022/11/01 02:28:10;;;;;;;15.27;8.90;;;10.30;99.90;;;;;;5211069;28;20032;-73
2022/11/01 02:31:07;;;;;;;15.57;8.85;;;10.30;99.90;;;;;;5190840;28;20238;-73
2022/11/01 02:33:48;;;;;;;17.33;7.63;;;10.30;99.90;;;;;;5215212;28;20025;-74
2022/11/01 02:36:34;;;;;;;15.90;8.38;;;10.30;99.90;;;;;;5210872;28;20204;-74
2022/11/01 02:39:30;;;;;;;15.32;8.68;;;10.30;99.90;;;;;;5210604;28;20036;-76
2022/11/01 02:42:17;;;;;;;15.48;8.85;;;10.30;99.90;;;;;;5183729;28;20072;-76
2022/11/01 02:45:07;;;;;;;15.88;8.05;;;10.30;99.90;;;;;;5210301;28;20539;-75
2022/11/01 02:47:39;;;;;;;14.15;8.00;;;10.30;99.90;;;;;;5210239;28;20230;-75
2022/11/01 02:50:28;;;;;;;13.77;8.10;;;10.30;99.90;;;;;;5219360;28;20025;-75
2022/11/01 02:53:00;;;;;;;13.63;8.02;;;10.30;99.90;;;;;;5204673;28;20044;-75
2022/11/01 02:55:34;;;;;;;15.43;7.53;;;10.40;99.90;;;;;;5209383;28;20052;-74
2022/11/01 02:58:18;;;;;;;13.45;7.05;;;10.40;99.90;;;;;;5209020;28;20044;-74
2022/11/01 03:00:54;;;;;;;16.60;7.73;;;10.40;99.90;;;;;;5210529;28;20037;-74
2022/11/01 03:03:37;;;;;;;15.05;7.53;;;10.40;99.90;;;;;;5181584;28;20038;-75
2022/11/01 03:06:31;;;;;;;17.63;7.03;;;10.40;99.90;;;;;;5179538;28;20072;-75
2022/11/01 03:09:10;;;;;;;12.73;8.00;;;10.40;99.90;;;;;;5207279;28;20069;-75
2022/11/01 03:11:49;;;;;;;13.45;7.32;;;10.40;99.90;;;;;;5201081;28;20025;-75
2022/11/01 03:14:31;;;;;;;12.80;7.20;;;10.40;99.90;;;;;;5209099;28;20033;-74
2022/11/01 03:17:15;;;;;;;14.77;7.10;;;10.40;99.90;;;;;;5185875;28;20044;-75
2022/11/01 03:19:59;;;;;;;14.40;7.80;;;10.40;99.90;;;;;;5203153;28;20036;-75
2022/11/01 03:22:40;;;;;;;10.60;6.72;;;10.40;99.90;;;;;;5175246;28;20242;-73
2022/11/01 03:25:38;;;;;;;12.77;7.50;;;10.40;99.90;;;;;;5206066;28;20037;-74
2022/11/01 03:28:16;;;;;;;12.23;7.03;;;10.30;99.90;;;;;;5176005;28;20037;-75
2022/11/01 03:30:55;;;;;;;12.05;7.50;;;10.30;99.90;;;;;;5209418;28;20021;-75
2022/11/01 03:33:28;;;;;;;14.27;8.60;;;10.40;99.90;;;;;;5199654;28;20216;-75
2022/11/01 03:36:08;;;;;;;15.93;8.60;;;10.40;99.90;;;;;;5209249;28;20032;-75
2022/11/01 03:38:47;;;;;;;16.83;8.65;;;10.40;99.90;;;;;;5208586;28;20337;-75
2022/11/01 03:41:23;;;;;;;12.00;7.68;;;10.40;99.90;;;;;;5208128;28;20379;-74
2022/11/01 03:44:01;;;;;;;17.08;9.00;;;10.40;99.90;;;;;;5171943;28;20339;-75
2022/11/01 03:46:35;;;;;;;13.45;8.02;;;10.30;99.90;;;;;;5171709;28;20026;-74
2022/11/01 03:49:06;;;;;;;13.68;7.93;;;10.30;99.90;;;;;;5193207;28;20319;-74
2022/11/01 03:51:37;;;;;;;14.07;7.25;;;10.40;99.90;;;;;;5208276;28;20468;-74
2022/11/01 03:54:09;;;;;;;18.35;8.07;;;10.40;99.90;;;;;;5207714;28;20017;-74
2022/11/01 03:56:43;;;;;;;18.70;8.35;;;10.40;99.90;;;;;;5191641;28;20238;-73
2022/11/01 03:59:16;;;;;;;13.00;7.47;;;10.50;99.90;;;;;;5209071;28;20375;-75
2022/11/01 04:01:47;;;;;;;16.25;8.18;;;10.40;99.90;;;;;;5207794;28;20045;-73
2022/11/01 04:04:18;;;;;;;13.27;6.82;;;10.40;99.90;;;;;;5199609;28;20029;-73
2022/11/01 04:06:50;;;;;;;14.68;7.75;;;10.40;99.90;;;;;;5207895;28;20039;-74
2022/11/01 04:09:24;;;;;;;15.02;8.15;;;10.40;99.90;;;;;;5208851;28;20025;-74
2022/11/01 04:11:57;;;;;;;13.18;7.32;;;10.50;99.90;;;;;;5206881;28;20063;-74
2022/11/01 04:20:33;;;;;;;15.77;7.63;;;10.40;99.90;;;;;;5165547;28;20200;-75
2022/11/01 04:23:05;;;;;;;17.20;8.90;;;10.40;99.90;;;;;;5166405;28;20050;-73
2022/11/01 04:25:37;;;;;;;17.88;8.77;;;10.40;99.90;;;;;;5178300;28;20044;-74
2022/11/01 04:28:08;;;;;;;18.52;8.30;;;10.50;99.90;;;;;;5149781;28;20042;-73
2022/11/01 04:30:43;;;;;;;14.60;8.20;;;10.40;99.90;;;;;;5165728;28;20109;-72
2022/11/01 04:33:14;;;;;;;13.98;8.23;;;10.40;99.90;;;;;;5157674;28;20045;-72
2022/11/01 04:35:46;;;;;;;13.65;9.13;;;10.50;99.90;;;;;;5165983;28;20335;-72
2022/11/01 04:38:19;;;;;;;17.30;8.63;;;10.50;99.90;;;;;;5165637;28;20219;-72
2022/11/01 04:40:57;;;;;;;14.70;8.27;;;10.40;99.90;;;;;;5133103;28;20046;-73
2022/11/01 04:43:29;;;;;;;15.80;8.10;;;10.40;99.90;;;;;;5180183;28;20538;-73
2022/11/01 04:46:03;;;;;;;17.38;8.05;;;10.40;99.90;;;;;;5169023;28;20141;-72
2022/11/01 04:48:39;;;;;;;;;;;10.40;99.90;;;;;;5157180;28;20424;-75
2022/11/01 04:51:13;;;;;;;15.43;9.63;;;10.40;99.90;;;;;;5177312;28;19918;-73
2022/11/01 04:53:44;;;;;;;19.33;9.10;;;10.50;99.90;;;;;;5212978;28;20418;-72
2022/11/01 04:56:15;;;;;;;21.48;9.20;;;10.40;99.90;;;;;;5212687;28;20038;-74
2022/11/01 04:58:49;;;;;;;16.67;9.80;;;10.40;99.90;;;;;;5214063;28;20025;-74
2022/11/01 05:01:20;;;;;;;15.73;8.90;;;10.40;99.90;;;;;;5211935;28;20246;-73
2022/11/01 05:03:51;;;;;;;15.77;8.10;;;10.40;99.90;;;;;;5212040;28;20036;-73
2022/11/01 05:06:22;;;;;;;14.55;8.50;;;10.40;99.90;;;;;;5182847;28;20132;-74
2022/11/01 05:08:55;;;;;;;15.50;8.07;;;10.40;99.90;;;;;;5210440;28;20673;-74
2022/11/01 05:11:26;;;;;;;16.15;8.77;;;10.40;99.90;;;;;;5188721;28;20324;-73
2022/11/01 05:14:00;;;;;;;16.67;8.27;;;10.30;99.90;;;;;;5201936;28;20734;-75
2022/11/01 05:16:31;;;;;;;16.67;8.75;;;10.40;99.90;;;;;;5189711;28;20045;-73
2022/11/01 05:19:03;;;;;;;13.93;7.55;;;10.40;99.90;;;;;;5207037;28;20022;-75
2022/11/01 05:21:36;;;;;;;15.75;8.95;;;10.40;99.90;;;;;;5212703;28;20025;-71
2022/11/01 05:24:10;;;;;;;16.27;8.07;;;10.40;99.90;;;;;;5189980;28;20034;-73
2022/11/01 05:26:44;;;;;;;13.02;8.13;;;10.40;99.90;;;;;;5209875;28;20039;-74
2022/11/01 05:29:15;;;;;;;17.75;8.48;;;10.40;99.90;;;;;;5212104;28;20321;-75
2022/11/01 05:31:46;;;;;;;15.98;8.02;;;10.40;99.90;;;;;;5169770;28;20319;-74
2022/11/01 05:34:19;;;;;;;13.63;8.38;;;10.40;99.90;;;;;;5206192;28;20029;-74
2022/11/01 05:36:52;;;;;;;15.13;8.83;;;10.30;99.90;;;;;;5187129;28;20046;-74
2022/11/01 05:39:23;;;;;;;16.73;8.00;;;10.40;99.90;;;;;;5184593;28;20565;-74
2022/11/01 05:41:59;;;;;;;13.20;7.45;;;10.40;99.90;;;;;;5204399;28;20021;-74
2022/11/01 05:44:39;;;;;;;17.80;8.80;;;10.40;99.90;;;;;;5198117;28;20041;-73
2022/11/01 05:47:10;;;;;;;15.43;8.43;;;10.50;99.90;;;;;;5184101;28;20094;-74
2022/11/01 05:49:41;;;;;;;15.40;8.85;;;10.40;99.90;;;;;;5184005;28;20257;-73
2022/11/01 05:52:15;;;;;;;13.95;8.27;;;10.40;99.90;;;;;;5196838;28;20060;-74
2022/11/01 05:54:48;;;;;;;15.55;8.93;;;10.40;99.90;;;;;;5214651;28;20033;-72
2022/11/01 05:57:23;;;;;;;18.52;9.40;;;10.50;99.90;;;;;;5208299;28;20044;-72
2022/11/01 05:59:55;;;;;;;14.57;8.35;;;10.40;99.90;;;;;;5205572;28;20266;-74
2022/11/01 06:02:29;;;;;;;1999.90;999.90;;;10.50;99.90;;;;;;5196061;28;20052;-74
2022/11/01 06:05:00;;;;;;;;;;;10.40;99.90;;;;;;5187314;28;20389;-74
2022/11/01 06:07:34;;;;;;;1999.90;999.90;;;10.50;99.90;;;;;;5170950;28;19909;-74
2022/11/01 06:10:07;;;;;;;1999.90;999.90;;;10.50;99.90;;;;;;5181739;28;20042;-74
2022/11/01 06:12:38;;;;;;;1999.90;819.80;;;10.50;99.90;;;;;;5188294;28;20038;-75
2022/11/01 06:15:10;;;;;;;1999.90;999.90;;;10.50;99.90;;;;;;5201254;28;20037;-75
2022/11/01 06:17:43;;;;;;;1999.90;999.90;;;10.50;99.90;;;;;;5186184;28;20366;-74
2022/11/01 06:20:19;;;;;;;1882.70;911.75;;;10.60;99.90;;;;;;5196309;28;20307;-74
2022/11/01 06:22:50;;;;;;;270.27;176.35;;;10.60;99.90;;;;;;5211492;28;20047;-75
2022/11/01 06:25:22;;;;;;;126.30;65.60;;;10.60;99.90;;;;;;5204328;28;20051;-75
2022/11/01 06:27:58;;;;;;;371.27;287.40;;;10.60;99.90;;;;;;5204087;28;20029;-75
2022/11/01 06:30:29;;;;;;;329.25;259.13;;;10.60;99.90;;;;;;5204481;28;20049;-75
2022/11/01 06:33:03;;;;;;;42.03;18.77;;;10.70;99.90;;;;;;5182971;28;20048;-74
2022/11/01 06:35:37;;;;;;;55.88;18.95;;;10.80;99.90;;;;;;5181578;28;20266;-75
2022/11/01 06:38:08;;;;;;;43.72;15.73;;;10.70;99.90;;;;;;5203349;28;20037;-73
2022/11/01 06:40:48;;;;;;;50.28;24.98;;;10.80;99.90;;;;;;5203668;28;20033;-74
2022/11/01 06:43:20;;;;;;;24.75;15.80;;;10.80;99.90;;;;;;5203489;28;20056;-74
2022/11/01 06:45:54;;;;;;;21.88;10.73;;;10.80;99.90;;;;;;5187976;28;20037;-73
2022/11/01 06:48:29;;;;;;;44.45;31.27;;;10.80;99.90;;;;;;5203565;28;20380;-75
2022/11/01 06:51:04;;;;;;;405.13;291.52;;;10.80;99.90;;;;;;5181378;28;20046;-73
2022/11/01 06:53:35;;;;;;;30.45;20.33;;;10.80;99.90;;;;;;5202708;28;20033;-73
2022/11/01 06:56:06;;;;;;;122.53;87.85;;;10.80;99.90;;;;;;5186450;28;20207;-74
2022/11/01 06:58:37;;;;;;;209.65;169.10;;;10.70;99.90;;;;;;5186474;28;20021;-73
2022/11/01 07:01:09;;;;;;;226.82;177.25;;;10.70;99.90;;;;;;5203898;28;20503;-76
2022/11/01 07:03:42;;;;;;;199.07;152.65;;;10.80;99.90;;;;;;5207246;28;20044;-75
2022/11/01 07:06:14;;;;;;;388.45;317.20;;;10.80;99.90;;;;;;5163753;28;20215;-73
2022/11/01 07:08:45;;;;;;;340.40;277.58;;;10.90;99.90;;;;;;5203139;28;20033;-75
2022/11/01 07:11:17;;;;;;;25.80;18.85;;;10.90;99.90;;;;;;5205988;28;20438;-73
2022/11/01 07:13:48;;;;;;;44.55;31.50;;;11.00;99.90;;;;;;5203672;28;20029;-73
2022/11/01 07:16:22;;;;;;;27.42;17.85;;;10.80;99.90;;;;;;5203711;28;20026;-75
2022/11/01 07:18:54;;;;;;;14.35;9.35;;;10.90;99.90;;;;;;5186128;28;20043;-72
2022/11/01 07:21:26;;;;;;;222.15;174.90;;;10.80;99.90;;;;;;5201386;28;20222;-73
2022/11/01 07:24:00;;;;;;;49.47;35.95;;;10.80;99.90;;;;;;5201927;28;20391;-73
2022/11/01 07:26:33;;;;;;;48.28;28.38;;;10.90;99.90;;;;;;5209218;28;20044;-73
2022/11/01 07:29:07;;;;;;;163.30;115.43;;;10.90;99.90;;;;;;5182287;28;20346;-72
2022/11/01 07:31:40;;;;;;;98.40;67.57;;;11.00;99.90;;;;;;5181748;28;20608;-74
2022/11/01 07:34:15;;;;;;;37.03;27.40;;;10.90;99.90;;;;;;5200814;28;20021;-73
2022/11/01 07:36:46;;;;;;;111.07;83.88;;;11.00;99.90;;;;;;5202937;28;20319;-74
2022/11/01 07:39:17;;;;;;;35.00;18.55;;;11.00;99.90;;;;;;5203416;28;20023;-73
2022/11/01 07:41:50;;;;;;;42.70;24.85;;;11.00;99.90;;;;;;5181241;28;20385;-73
2022/11/01 07:44:23;;;;;;;290.92;232.75;;;11.00;99.90;;;;;;5198130;28;20142;-73
2022/11/01 07:46:54;;;;;;;536.90;459.05;;;11.10;99.90;;;;;;5202232;28;20034;-75
2022/11/01 07:49:26;;;;;;;143.85;116.82;;;11.20;99.90;;;;;;5192587;28;20037;-75
2022/11/01 07:51:57;;;;;;;84.22;64.75;;;11.20;99.90;;;;;;5214501;28;20017;-75
2022/11/01 07:54:28;;;;;;;127.13;101.72;;;11.20;99.90;;;;;;5177102;28;20045;-74
2022/11/01 07:56:59;;;;;;;56.25;38.17;;;11.30;99.90;;;;;;5167016;28;20041;-74
2022/11/01 07:59:31;;;;;;;87.28;72.13;;;11.30;99.90;;;;;;5164374;28;20060;-73
2022/11/01 08:02:03;;;;;;;29.30;21.90;;;11.40;99.90;;;;;;5165269;28;20053;-75
2022/11/01 08:04:37;;;;;;;15.55;9.38;;;11.30;99.90;;;;;;5173469;28;20053;-74
2022/11/01 08:07:08;;;;;;;26.35;13.20;;;11.20;99.90;;;;;;5176747;28;20063;-73
2022/11/01 08:09:42;;;;;;;19.98;10.88;;;11.30;99.90;;;;;;5171658;28;20040;-74
2022/11/01 08:12:14;;;;;;;26.67;19.08;;;11.40;99.90;;;;;;5172030;28;20056;-73
2022/11/01 08:14:45;;;;;;;22.30;12.48;;;11.30;99.90;;;;;;5185613;28;20036;-74
2022/11/01 08:17:18;;;;;;;33.15;24.80;;;11.40;99.90;;;;;;5184736;28;20033;-74
2022/11/01 08:19:50;;;;;;;29.97;23.87;;;11.40;99.90;;;;;;5203323;28;20037;-72
2022/11/01 08:22:21;;;;;;;19.33;8.20;;;11.40;99.90;;;;;;5200398;28;20278;-74
2022/11/01 08:24:53;;;;;;;19.77;12.52;;;11.40;99.90;;;;;;5214201;28;20035;-74
2022/11/01 08:27:27;;;;;;;36.30;31.42;;;11.50;99.90;;;;;;5195079;28;20032;-73
2022/11/01 08:29:58;;;;;;;44.00;39.22;;;11.50;99.90;;;;;;5187157;28;20064;-74
2022/11/01 08:32:30;;;;;;;13.30;8.02;;;11.40;99.90;;;;;;5194196;28;20037;-73
2022/11/01 08:35:03;;;;;;;13.23;7.15;;;11.20;99.90;;;;;;5187049;28;20045;-73
2022/11/01 08:37:34;;;;;;;26.25;19.40;;;11.10;99.90;;;;;;5196201;28;20025;-73
2022/11/01 08:40:06;;;;;;;17.48;9.98;;;11.20;99.90;;;;;;5205351;28;20041;-73
2022/11/01 08:42:39;;;;;;;24.50;17.83;;;11.30;99.90;;;;;;5206817;28;20030;-75
2022/11/01 08:45:12;;;;;;;27.63;19.48;;;11.30;99.90;;;;;;5206036;28;20044;-72
2022/11/01 08:47:43;;;;;;;19.23;10.43;;;11.30;99.90;;;;;;5188880;28;20369;-74
2022/11/01 08:50:16;;;;;;;13.00;6.82;;;11.50;99.90;;;;;;5204793;28;20311;-74
2022/11/01 08:52:47;;;;;;;12.40;8.05;;;11.60;99.90;;;;;;5204347;28;20033;-75
2022/11/01 08:55:18;;;;;;;8.73;5.28;;;11.80;99.90;;;;;;5175254;28;20049;-73
2022/11/01 08:57:50;;;;;;;35.33;25.55;;;11.80;99.90;;;;;;5218443;28;20035;-73
2022/11/01 09:00:21;;;;;;;31.23;26.20;;;11.90;99.90;;;;;;5229544;28;20021;-74
2022/11/01 09:02:52;;;;;;;55.40;49.70;;;11.90;99.90;;;;;;5192793;28;20483;-73
2022/11/01 09:05:30;;;;;;;68.55;61.88;;;11.90;99.90;;;;;;5201041;28;20289;-73
2022/11/01 09:08:03;;;;;;;17.23;8.60;;;12.00;99.90;;;;;;5205641;28;20029;-74
2022/11/01 09:10:34;;;;;;;12.93;6.40;;;12.10;99.90;;;;;;5208797;28;20067;-74
2022/11/01 09:13:05;;;;;;;15.02;9.38;;;12.10;99.90;;;;;;5210072;28;20032;-74
2022/11/01 09:15:41;;;;;;;35.15;23.63;;;11.90;99.90;;;;;;5196184;28;20039;-74
2022/11/01 09:18:16;;;;;;;69.30;60.53;;;12.00;99.90;;;;;;5204363;28;20365;-74
2022/11/01 09:20:59;;;;;;;19.92;10.95;;;12.10;99.90;;;;;;5208483;28;20025;-75
2022/11/01 09:23:30;;;;;;;9.38;6.50;;;12.10;99.90;;;;;;5196785;28;20037;-75
2022/11/01 09:26:07;;;;;;;16.20;11.60;;;11.90;99.90;;;;;;5207751;28;20456;-75
2022/11/01 09:28:39;;;;;;;10.35;6.13;;;11.90;99.90;;;;;;5210216;28;20335;-73
2022/11/01 09:31:11;;;;;;;11.23;5.78;;;12.00;99.90;;;;;;5192651;28;20048;-76
2022/11/01 09:33:45;;;;;;;7.10;5.15;;;12.10;99.90;;;;;;5203898;28;20036;-73
2022/11/01 09:36:20;;;;;;;5.47;4.30;;;12.00;99.90;;;;;;5195220;28;20246;-73
2022/11/01 09:38:51;;;;;;;9.85;7.80;;;12.10;99.90;;;;;;5193170;28;20036;-73
2022/11/01 09:41:33;;;;;;;6.03;4.30;;;12.30;99.90;;;;;;5193786;28;20033;-75
2022/11/01 09:44:07;;;;;;;11.85;7.32;;;12.20;99.90;;;;;;5194680;28;20068;-74
2022/11/01 09:46:50;;;;;;;10.68;9.32;;;12.40;99.90;;;;;;5218401;28;20029;-74
2022/11/01 09:49:32;;;;;;;90.53;82.20;;;12.70;99.90;;;;;;5222171;28;20318;-74
2022/11/01 09:52:09;;;;;;;62.47;56.60;;;13.00;99.90;;;;;;5197594;28;20031;-74
2022/11/01 09:54:42;;;;;;;17.52;15.88;;;13.10;99.90;;;;;;5206725;28;20063;-74
2022/11/01 09:57:41;;;;;;;49.67;44.35;;;13.20;99.90;;;;;;5192965;28;20048;-75
2022/11/01 10:00:16;;;;;;;9.02;6.05;;;13.10;99.90;;;;;;5197740;28;20035;-75
2022/11/01 10:03:16;;;;;;;20.38;18.25;;;13.20;99.90;;;;;;5208772;28;20175;-74
2022/11/01 10:06:02;;;;;;;22.15;19.52;;;13.30;99.90;;;;;;5178546;28;20054;-73
2022/11/01 10:08:37;;;;;;;7.82;4.75;;;13.30;99.90;;;;;;5206838;28;20034;-73
2022/11/01 10:11:44;;;;;;;8.35;4.90;;;13.30;99.90;;;;;;5207480;28;20120;-72
2022/11/01 10:14:27;;;;;;;7.38;4.55;;;13.40;99.90;;;;;;5207993;28;20033;-74
2022/11/01 10:17:04;;;;;;;12.10;6.85;;;13.70;99.90;;;;;;5214272;28;20040;-73
2022/11/01 10:19:37;;;;;;;10.07;7.05;;;13.50;99.90;;;;;;5209944;28;20324;-73
2022/11/01 10:22:21;;;;;;;27.00;22.45;;;13.70;99.90;;;;;;5212211;28;20021;-74
2022/11/01 10:25:03;;;;;;;10.13;7.05;;;13.80;99.90;;;;;;5208501;28;20032;-74
2022/11/01 10:27:56;;;;;;;6.93;4.70;;;13.70;99.90;;;;;;5225046;28;20037;-73
2022/11/01 10:30:35;;;;;;;34.45;29.35;;;13.30;99.90;;;;;;5186869;28;20247;-75
2022/11/01 10:33:29;;;;;;;33.78;27.67;;;13.30;99.90;;;;;;5209400;28;20021;-75
2022/11/01 10:36:06;;;;;;;26.43;19.60;;;13.50;99.90;;;;;;5188383;28;20034;-75
2022/11/01 10:38:47;;;;;;;7.72;4.80;;;13.70;99.90;;;;;;5206442;28;20261;-73
2022/11/01 10:41:26;;;;;;;9.02;5.90;;;13.40;99.90;;;;;;5185166;28;20032;-74
2022/11/01 10:44:02;;;;;;;10.68;6.82;;;13.90;99.90;;;;;;5207322;28;20035;-74
2022/11/01 10:46:39;;;;;;;7.10;5.50;;;14.30;99.90;;;;;;5208442;28;20033;-74
2022/11/01 10:49:39;;;;;;;30.88;19.27;;;14.50;99.90;;;;;;5206964;28;20641;-74
2022/11/01 10:52:21;;;;;;;7.13;4.82;;;14.50;99.90;;;;;;5193553;28;20051;-74
2022/11/01 10:54:55;;;;;;;208.60;186.52;;;14.20;99.90;;;;;;5212775;28;20041;-75
2022/11/01 10:57:44;;;;;;;16.77;12.15;;;14.30;99.90;;;;;;5192574;28;20251;-72
2022/11/01 11:00:19;;;;;;;235.10;211.07;;;14.30;99.90;;;;;;5194929;28;20018;-74
2022/11/01 11:02:54;;;;;;;;;;;14.50;99.90;;;;;;5210774;28;20035;-74
2022/11/01 11:05:28;;;;;;;57.28;51.88;;;14.50;99.90;;;;;;5177828;28;19925;-73
2022/11/01 11:08:03;;;;;;;;;;;14.60;99.90;;;;;;5198360;28;20302;-74
2022/11/01 11:10:34;;;;;;;8.90;7.03;;;15.00;99.90;;;;;;5211285;28;19911;-75
2022/11/01 11:13:08;;;;;;;11.82;10.45;;;15.00;99.90;;;;;;5231078;28;20043;-75
2022/11/01 11:15:47;;;;;;;11.23;9.73;;;15.50;99.90;;;;;;5226562;28;20028;-74
2022/11/01 11:18:42;;;;;;;8.77;5.78;;;16.00;99.90;;;;;;5199267;28;20262;-75
2022/11/01 11:21:13;;;;;;;;;;;16.10;99.90;;;;;;5187688;28;20042;-75
2022/11/01 11:23:45;;;;;;;13.32;11.93;;;16.40;99.90;;;;;;5207084;28;19955;-75
2022/11/01 11:26:20;;;;;;;7.88;5.82;;;18.10;99.90;;;;;;5195038;28;20074;-74
2022/11/01 11:28:58;;;;;;;9.40;5.60;;;20.40;21.40;;;;;;5190068;28;20040;-75
2022/11/01 11:31:33;;;;;;;6.15;4.13;;;22.50;39.10;;;;;;5197821;28;20045;-75
2022/11/01 11:34:18;;;;;;;6.57;4.47;;;23.70;99.90;;;;;;5207976;28;20043;-75
2022/11/01 11:36:56;;;;;;;5.50;3.85;;;23.60;99.90;;;;;;5209737;28;20033;-75
2022/11/01 11:39:31;;;;;;;3.83;3.25;;;23.30;99.90;;;;;;5217593;28;20043;-74
2022/11/01 11:42:13;;;;;;;3.63;3.22;;;21.90;99.90;;;;;;5178710;28;20045;-76
2022/11/01 11:44:53;;;;;;;5.07;3.50;;;22.10;99.90;;;;;;5209784;28;20358;-76
2022/11/01 11:47:27;;;;;;;4.68;3.13;;;21.30;99.90;;;;;;5207969;28;20039;-76
2022/11/01 11:50:14;;;;;;;7.65;4.53;;;22.50;99.90;;;;;;5195504;28;20037;-75
2022/11/01 11:53:17;;;;;;;6.32;4.90;;;23.90;99.90;;;;;;5201734;28;20043;-75
2022/11/01 11:56:11;;;;;;;8.02;4.55;;;22.70;99.90;;;;;;5189480;28;20326;-74
2022/11/01 11:58:47;;;;;;;12.27;11.02;;;22.30;99.90;;;;;;5188913;28;20028;-75
2022/11/01 12:01:22;;;;;;;9.27;7.25;;;22.30;99.90;;;;;;5207526;28;20017;-75
2022/11/01 12:04:06;;;;;;;8.05;5.55;;;22.60;99.90;;;;;;5190489;28;20050;-75
2022/11/01 12:06:44;;;;;;;10.48;8.85;;;22.70;99.90;;;;;;5178259;28;20065;-75
2022/11/01 12:09:34;;;;;;;8.65;7.85;;;22.60;99.90;;;;;;5187096;28;20053;-75
2022/11/01 12:12:29;;;;;;;31.27;28.00;;;22.80;99.90;;;;;;5170976;28;20044;-77
2022/11/01 12:15:23;;;;;;;4.20;3.22;;;22.80;99.90;;;;;;5209268;28;20041;-75
2022/11/01 12:17:55;;;;;;;10.90;9.65;;;22.60;99.90;;;;;;5209104;28;20021;-75
2022/11/01 12:20:37;;;;;;;4.90;3.25;;;22.30;99.90;;;;;;5207859;28;20220;-77
2022/11/01 12:23:30;;;;;;;6.05;3.88;;;22.10;99.90;;;;;;5208745;28;20349;-77
2022/11/01 12:26:06;;;;;;;4.53;4.03;;;22.40;99.90;;;;;;5191075;28;20030;-75
2022/11/01 12:28:46;;;;;;;92.40;84.22;;;22.10;99.90;;;;;;5188797;28;20040;-75
2022/11/01 12:31:25;;;;;;;4.53;3.90;;;22.30;99.90;;;;;;5207674;28;20039;-77
2022/11/01 12:34:09;;;;;;;4.55;3.70;;;22.50;99.90;;;;;;5197281;28;20038;-74
2022/11/01 12:36:49;;;;;;;6.28;3.75;;;22.70;99.90;;;;;;5193543;28;20022;-76
2022/11/01 12:39:45;;;;;;;4.25;3.42;;;23.00;99.90;;;;;;5206955;28;20044;-75
2022/11/01 12:43:01;;;;;;;6.40;4.55;;;23.30;99.90;;;;;;5207189;28;20330;-75
2022/11/01 12:45:44;;;;;;;7.43;4.55;;;22.10;99.90;;;;;;5133558;28;20336;-75
2022/11/01 12:48:21;;;;;;;8.52;4.40;;;21.30;99.90;;;;;;5128745;28;20042;-75
2022/11/01 12:51:06;;;;;;;5.78;4.15;;;21.60;99.90;;;;;;5145307;28;20228;-76
2022/11/01 12:53:51;;;;;;;5.53;4.10;;;21.70;99.90;;;;;;5149655;28;20030;-75
2022/11/01 12:56:25;;;;;;;4.95;4.25;;;21.20;99.90;;;;;;5126495;28;20041;-75
2022/11/01 12:58:57;;;;;;;;;;;21.00;99.90;;;;;;5145127;28;20378;-76
2022/11/01 13:01:43;;;;;;;6.97;5.30;;;20.80;99.90;;;;;;5140251;28;19905;-77
2022/11/01 13:04:20;;;;;;;8.27;6.85;;;20.40;99.90;;;;;;5138102;28;20038;-76
2022/11/01 13:07:03;;;;;;;8.95;4.95;;;19.80;99.90;;;;;;5146501;28;20059;-75
2022/11/01 13:09:45;;;;;;;8.32;4.57;;;19.70;99.90;;;;;;5143624;28;20374;-75
2022/11/01 13:12:22;;;;;;;6.03;5.13;;;20.70;99.90;;;;;;5141711;28;20070;-76
2022/11/01 13:14:54;;;;;;;6.15;4.30;;;21.80;99.90;;;;;;5137349;28;20049;-75
2022/11/01 13:17:42;;;;;;;9.20;4.10;;;21.80;99.90;;;;;;5189706;28;20349;-76
2022/11/01 13:20:25;;;;;;;5.40;4.55;;;22.00;99.90;;;;;;5210391;28;20029;-76
2022/11/01 13:23:13;;;;;;;6.45;5.20;;;21.90;99.90;;;;;;5211474;28;20029;-76
2022/11/01 13:25:50;;;;;;;5.07;4.55;;;21.40;99.90;;;;;;5211785;28;20033;-76
2022/11/01 13:28:24;;;;;;;5.55;4.70;;;20.90;99.90;;;;;;5211794;28;20033;-76